Time;durP1;ratioP1;P1;durP2;ratioP2;P2;SDS_P1;SDS_P2;PMS_P1;PMS_P2;Temp;Humidity;BMP_temperature;BMP_pressure;BME280_temperature;BME280_humidity;BME280_pressure;Samples;Min_cycle;Max_cycle;Signal;HPM_P1;HPM_P2
2023/03/17 00:01:02;;;;;;;4.17;1.80;;;;;;;8.35;61.17;100639.50;4978069;28;20034;-84
2023/03/17 00:03:29;;;;;;;4.70;1.85;;;;;;;8.32;61.55;100645.31;4977416;28;20448;-84
2023/03/17 00:05:57;;;;;;;6.95;2.13;;;;;;;8.29;60.86;100645.75;4977065;28;20129;-84
2023/03/17 00:08:35;;;;;;;4.15;1.98;;;;;;;8.27;61.42;100645.94;4994307;28;20107;-84
2023/03/17 00:11:01;;;;;;;4.28;1.80;;;;;;;8.23;61.60;100634.69;4977994;28;20026;-84
2023/03/17 00:13:27;;;;;;;6.25;2.00;;;;;;;8.19;61.88;100643.41;4977694;28;20501;-84
2023/03/17 00:16:02;;;;;;;3.63;1.92;;;;;;;8.16;62.27;100647.34;4977195;28;20034;-84
2023/03/17 00:18:32;;;;;;;4.22;1.60;;;;;;;8.13;62.32;100638.84;4977324;28;20041;-84
2023/03/17 00:20:58;;;;;;;6.25;1.95;;;;;;;8.08;62.70;100632.16;4961719;28;20030;-84
2023/03/17 00:23:24;;;;;;;5.68;2.05;;;;;;;8.04;62.72;100622.81;4977128;28;20058;-84
2023/03/17 00:25:52;;;;;;;4.50;1.83;;;;;;;8.02;63.03;100618.66;4994065;28;20089;-84
2023/03/17 00:28:21;;;;;;;4.43;2.10;;;;;;;7.99;63.51;100616.38;4977174;28;20043;-84
2023/03/17 00:30:51;;;;;;;14.97;2.10;;;;;;;7.95;63.31;100605.13;4994579;28;20022;-85
2023/03/17 00:33:18;;;;;;;4.78;2.10;;;;;;;7.92;63.76;100602.00;4994487;28;20026;-85
2023/03/17 00:35:45;;;;;;;4.30;1.90;;;;;;;7.89;63.33;100609.47;4960869;28;20069;-84
2023/03/17 00:38:15;;;;;;;4.80;2.22;;;;;;;7.87;63.63;100611.53;4945149;28;20030;-84
2023/03/17 00:40:40;;;;;;;3.88;1.90;;;;;;;7.88;64.24;100612.38;4993997;28;20478;-84
2023/03/17 00:43:07;;;;;;;5.50;2.00;;;;;;;7.86;63.39;100615.28;4993990;28;20030;-84
2023/03/17 00:45:33;;;;;;;7.18;1.95;;;;;;;7.85;64.38;100605.53;4996275;28;20030;-85
2023/03/17 00:47:59;;;;;;;3.97;1.93;;;;;;;7.85;63.88;100589.31;4980969;28;20112;-84
2023/03/17 00:50:26;;;;;;;4.40;2.25;;;;;;;7.85;64.27;100600.13;4997951;28;20586;-84
2023/03/17 00:52:56;;;;;;;4.30;2.17;;;;;;;7.86;63.57;100603.66;4998429;28;20069;-84
2023/03/17 00:55:23;;;;;;;5.40;2.33;;;;;;;7.84;63.63;100597.59;4980759;28;20026;-84
2023/03/17 00:57:49;;;;;;;4.97;1.92;;;;;;;7.82;63.93;100594.28;4980554;28;20022;-85
2023/03/17 01:00:17;;;;;;;8.15;2.28;;;;;;;7.81;64.67;100595.31;4998562;28;20033;-84
2023/03/17 01:02:44;;;;;;;6.13;2.40;;;;;;;7.78;64.25;100596.56;4980439;28;20026;-84
2023/03/17 01:05:12;;;;;;;3.35;2.00;;;;;;;7.73;64.92;100594.44;4964448;28;20061;-84
2023/03/17 01:07:39;;;;;;;4.22;2.13;;;;;;;7.70;64.80;100599.44;4997872;28;20035;-84
2023/03/17 01:10:16;;;;;;;5.45;1.88;;;;;;;7.65;64.57;100597.34;4997875;28;20027;-84
2023/03/17 01:12:42;;;;;;;4.82;1.70;;;;;;;7.58;65.46;100596.50;4997585;28;20038;-84
2023/03/17 01:15:08;;;;;;;3.25;1.55;;;;;;;7.51;65.36;100596.47;4964173;28;20034;-85
2023/03/17 01:17:33;;;;;;;6.93;2.00;;;;;;;7.47;65.90;100588.97;4979906;28;20041;-84
2023/03/17 01:19:59;;;;;;;5.65;1.95;;;;;;;7.42;66.18;100588.75;4964589;28;20305;-84
2023/03/17 01:22:24;;;;;;;5.57;2.07;;;;;;;7.34;66.43;100582.47;4963681;28;20077;-84
2023/03/17 01:24:50;;;;;;;5.53;2.03;;;;;;;7.37;66.44;100581.25;4980084;28;20057;-84
2023/03/17 01:27:17;;;;;;;3.88;1.77;;;;;;;7.30;66.35;100585.78;4963528;28;20057;-84
2023/03/17 01:29:43;;;;;;;5.50;2.00;;;;;;;7.28;66.56;100577.03;4997208;28;20474;-84
2023/03/17 01:32:09;;;;;;;4.40;1.75;;;;;;;7.26;66.92;100576.41;4979901;28;20042;-84
2023/03/17 01:34:35;;;;;;;3.72;1.67;;;;;;;7.26;66.52;100589.91;4948018;28;20544;-84
2023/03/17 01:37:00;;;;;;;5.90;1.83;;;;;;;7.23;67.04;100580.34;4979736;28;20482;-84
2023/03/17 01:39:27;;;;;;;3.53;1.70;;;;;;;7.26;66.75;100579.09;4980490;28;20031;-84
2023/03/17 01:41:55;;;;;;;5.20;2.03;;;;;;;7.22;67.21;100567.03;4963452;28;20042;-85
2023/03/17 01:44:22;;;;;;;5.60;1.77;;;;;;;7.17;67.28;100567.66;4979680;28;20466;-84
2023/03/17 01:46:48;;;;;;;4.05;1.95;;;;;;;7.13;66.84;100569.94;4979546;28;20038;-84
2023/03/17 01:49:37;;;;;;;4.22;1.70;;;;;;;7.14;66.80;100570.75;4963382;28;20080;-84
2023/03/17 01:52:16;;;;;;;5.03;2.10;;;;;;;7.11;66.97;100574.66;4979618;28;20109;-84
2023/03/17 01:55:10;;;;;;;5.20;1.65;;;;;;;7.09;66.82;100562.44;4996737;28;20034;-85
2023/03/17 01:57:52;;;;;;;4.50;1.85;;;;;;;7.05;66.75;100564.69;4994385;28;20049;-84
2023/03/17 02:00:23;;;;;;;5.95;2.20;;;;;;;7.02;67.93;100557.81;4996947;28;20034;-85
2023/03/17 02:02:54;;;;;;;5.10;1.80;;;;;;;7.04;67.59;100557.59;4980541;28;20367;-84
2023/03/17 02:05:28;;;;;;;4.80;1.73;;;;;;;7.02;67.98;100552.41;4996911;28;20026;-85
2023/03/17 02:07:55;;;;;;;3.53;1.70;;;;;;;7.02;67.22;100551.59;4979250;28;20033;-84
2023/03/17 02:10:23;;;;;;;5.10;2.55;;;;;;;7.03;68.01;100548.69;4996971;28;20525;-84
2023/03/17 02:12:55;;;;;;;5.75;1.83;;;;;;;7.06;67.82;100543.91;4979144;28;20058;-84
2023/03/17 02:15:22;;;;;;;5.97;1.85;;;;;;;7.07;67.32;100542.91;4996505;28;20034;-85
2023/03/17 02:17:48;;;;;;;5.90;2.10;;;;;;;7.09;67.67;100538.97;4979633;28;20045;-84
2023/03/17 02:20:17;;;;;;;6.38;2.33;;;;;;;7.12;66.95;100543.97;4963016;28;20061;-84
2023/03/17 02:22:53;;;;;;;6.30;2.20;;;;;;;7.16;67.08;100544.38;4979045;28;20035;-84
2023/03/17 02:25:20;;;;;;;6.05;1.90;;;;;;;7.18;67.11;100536.94;4962839;28;20037;-85
2023/03/17 02:27:50;;;;;;;6.47;2.30;;;;;;;7.21;67.30;100536.53;4978800;28;20034;-84
2023/03/17 02:30:18;;;;;;;5.00;2.07;;;;;;;7.24;67.44;100527.22;4996531;28;20085;-85
2023/03/17 02:32:43;;;;;;;5.57;2.15;;;;;;;7.25;67.34;100527.00;4979673;28;20084;-84
2023/03/17 02:35:09;;;;;;;5.72;2.38;;;;;;;7.28;66.66;100523.91;4978779;28;20034;-84
2023/03/17 02:37:36;;;;;;;8.20;2.78;;;;;;;7.30;66.69;100523.72;4978758;28;20037;-84
2023/03/17 02:40:01;;;;;;;6.88;2.30;;;;;;;7.31;67.11;100520.81;4996522;28;20426;-84
2023/03/17 02:42:28;;;;;;;5.10;1.90;;;;;;;7.32;66.48;100514.38;4962370;28;20470;-84
2023/03/17 02:44:53;;;;;;;5.75;2.00;;;;;;;7.33;66.82;100518.72;4978628;28;20463;-84
2023/03/17 02:47:20;;;;;;;7.37;2.13;;;;;;;7.33;66.65;100516.03;4963159;28;20049;-84
2023/03/17 02:49:46;;;;;;;6.32;2.60;;;;;;;7.30;66.81;100512.91;4978725;28;20084;-84
2023/03/17 02:52:12;;;;;;;7.83;2.27;;;;;;;7.30;66.70;100511.03;4978237;28;20490;-85
2023/03/17 02:54:37;;;;;;;4.80;2.13;;;;;;;7.29;66.43;100514.78;4978983;28;20057;-85
2023/03/17 02:57:03;;;;;;;5.70;2.13;;;;;;;7.30;66.67;100502.13;4995798;28;20053;-85
2023/03/17 02:59:29;;;;;;;5.53;1.92;;;;;;;7.31;66.66;100509.19;4978795;28;20042;-84
2023/03/17 03:01:55;;;;;;;7.53;2.40;;;;;;;7.31;66.27;100509.19;4996058;28;20035;-84
2023/03/17 03:04:21;;;;;;;5.75;2.00;;;;;;;7.31;66.28;100514.59;4962261;28;20462;-84
2023/03/17 03:06:47;;;;;;;4.80;1.90;;;;;;;7.32;65.69;100519.78;4977855;28;20054;-84
2023/03/17 03:09:13;;;;;;;6.07;2.00;;;;;;;7.33;65.88;100521.44;4994684;28;20406;-85
2023/03/17 03:11:39;;;;;;;6.20;2.17;;;;;;;7.32;65.77;100511.69;4962038;28;20125;-84
2023/03/17 03:14:07;;;;;;;8.38;2.17;;;;;;;7.34;65.55;100512.31;4996076;28;20030;-85
2023/03/17 03:16:32;;;;;;;5.30;2.08;;;;;;;7.33;65.50;100505.22;4977697;28;20116;-84
2023/03/17 03:18:58;;;;;;;5.78;2.10;;;;;;;7.34;65.53;100508.78;4961916;28;20062;-85
2023/03/17 03:21:24;;;;;;;4.93;1.80;;;;;;;7.35;65.29;100511.28;4995364;28;20046;-85
2023/03/17 03:23:49;;;;;;;8.07;1.90;;;;;;;7.37;65.44;100527.28;4977953;28;20470;-85
2023/03/17 03:26:15;;;;;;;5.00;1.83;;;;;;;7.36;65.11;100526.41;4961726;28;20030;-85
2023/03/17 03:28:41;;;;;;;6.07;1.90;;;;;;;7.36;65.20;100526.41;4977628;28;20034;-84
2023/03/17 03:31:07;;;;;;;4.10;1.73;;;;;;;7.35;65.02;100519.38;4961931;28;20038;-85
2023/03/17 03:33:33;;;;;;;3.53;1.48;;;;;;;7.34;64.84;100512.31;4977937;28;20041;-85
2023/03/17 03:36:01;;;;;;;7.00;2.00;;;;;;;7.35;64.85;100510.44;4995101;28;20034;-85
2023/03/17 03:38:27;;;;;;;5.15;1.60;;;;;;;7.33;65.12;100513.31;4977712;28;20034;-84
2023/03/17 03:40:52;;;;;;;4.47;1.70;;;;;;;7.32;65.12;100535.13;4961451;28;20450;-85
2023/03/17 03:43:18;;;;;;;5.07;1.90;;;;;;;7.31;64.77;100526.19;4945489;28;20040;-85
2023/03/17 03:45:44;;;;;;;7.50;1.70;;;;;;;7.32;64.92;100533.28;4977396;28;20084;-85
2023/03/17 03:48:10;;;;;;;4.20;1.40;;;;;;;7.31;65.02;100539.69;4977509;28;20035;-85
2023/03/17 03:50:36;;;;;;;6.07;1.70;;;;;;;7.27;65.44;100532.22;4961182;28;20042;-84
2023/03/17 03:53:01;;;;;;;4.82;1.75;;;;;;;7.25;65.26;100523.47;4977357;28;20390;-84
2023/03/17 03:55:27;;;;;;;4.47;1.50;;;;;;;7.23;65.33;100531.75;4977797;28;20045;-84
2023/03/17 03:57:52;;;;;;;3.80;1.40;;;;;;;7.24;65.20;100543.41;4977165;28;20499;-84
2023/03/17 04:00:18;;;;;;;5.15;1.60;;;;;;;7.21;65.23;100552.72;4945197;28;20069;-84
2023/03/17 04:02:45;;;;;;;6.80;1.90;;;;;;;7.17;65.75;100544.19;4976971;28;20109;-84
2023/03/17 04:05:14;;;;;;;4.30;1.63;;;;;;;7.17;65.91;100552.28;4977154;28;20026;-84
2023/03/17 04:07:41;;;;;;;2.83;1.30;;;;;;;7.15;65.92;100545.44;4977638;28;20026;-84
2023/03/17 04:10:09;;;;;;;9.77;1.75;;;;;;;7.15;65.92;100543.56;4995327;28;20030;-84
2023/03/17 04:12:34;;;;;;;7.33;1.63;;;;;;;7.15;65.84;100542.75;4978079;28;20054;-84
2023/03/17 04:15:00;;;;;;;6.47;1.75;;;;;;;7.15;65.90;100540.03;4976914;28;20096;-84
2023/03/17 04:17:25;;;;;;;4.33;1.43;;;;;;;7.14;65.74;100544.59;4960987;28;20429;-84
2023/03/17 04:19:51;;;;;;;6.70;1.83;;;;;;;7.16;66.31;100541.69;4976761;28;20089;-84
2023/03/17 04:22:16;;;;;;;4.78;1.70;;;;;;;7.16;65.96;100541.69;4961147;28;20069;-84
2023/03/17 04:24:42;;;;;;;8.77;1.57;;;;;;;7.16;66.00;100544.38;4960921;28;20026;-84
2023/03/17 04:27:08;;;;;;;5.07;1.70;;;;;;;7.15;65.88;100556.22;4994037;28;20026;-84
2023/03/17 04:29:33;;;;;;;6.82;2.13;;;;;;;7.13;66.24;100548.34;4961045;28;20451;-84
2023/03/17 04:31:58;;;;;;;7.10;2.30;;;;;;;7.14;66.34;100550.00;4960821;28;20030;-84
2023/03/17 04:34:26;;;;;;;6.40;1.80;;;;;;;7.13;66.28;100544.78;4945062;28;20117;-84
2023/03/17 04:36:52;;;;;;;8.30;1.73;;;;;;;7.14;66.20;100541.06;4960930;28;20022;-84
2023/03/17 04:39:17;;;;;;;6.75;1.85;;;;;;;7.11;65.88;100552.25;4960979;28;20030;-84
2023/03/17 04:41:43;;;;;;;6.90;2.07;;;;;;;7.14;66.19;100554.56;4960792;28;20394;-84
2023/03/17 04:44:08;;;;;;;9.32;2.15;;;;;;;7.12;66.92;100553.94;4976671;28;20105;-84
2023/03/17 04:46:35;;;;;;;10.07;2.00;;;;;;;7.11;66.60;100554.97;4994525;28;20376;-84
2023/03/17 04:49:00;;;;;;;9.55;2.55;;;;;;;7.09;66.43;100552.47;4994025;28;20065;-85
2023/03/17 04:51:26;;;;;;;11.00;2.45;;;;;;;7.11;66.05;100544.16;4992827;28;20109;-84
2023/03/17 04:53:52;;;;;;;8.98;2.63;;;;;;;7.14;66.19;100544.59;4991595;28;20088;-85
2023/03/17 04:56:17;;;;;;;6.83;1.83;;;;;;;7.13;66.78;100545.66;4976827;28;20494;-84
2023/03/17 04:58:43;;;;;;;8.73;2.20;;;;;;;7.11;66.65;100549.56;4960587;28;20368;-85
2023/03/17 05:01:09;;;;;;;7.25;2.28;;;;;;;7.12;66.55;100545.84;4945030;28;20416;-85
2023/03/17 05:03:34;;;;;;;8.95;2.60;;;;;;;7.12;67.00;100535.88;4960495;28;20034;-84
2023/03/17 05:06:02;;;;;;;11.50;2.27;;;;;;;7.14;66.92;100533.78;4976530;28;20081;-84
2023/03/17 05:08:28;;;;;;;9.60;1.85;;;;;;;7.14;66.98;100524.88;4976119;28;20039;-84
2023/03/17 05:10:57;;;;;;;10.27;2.17;;;;;;;7.15;67.20;100521.16;4993698;28;20045;-84
2023/03/17 05:13:24;;;;;;;10.95;2.33;;;;;;;7.17;67.00;100513.69;4993997;28;20038;-84
2023/03/17 05:15:51;;;;;;;6.85;2.15;;;;;;;7.19;66.93;100522.44;4994098;28;20033;-84
2023/03/17 05:18:18;;;;;;;9.68;2.28;;;;;;;7.18;66.85;100521.56;4993845;28;20026;-84
2023/03/17 05:20:44;;;;;;;8.63;1.95;;;;;;;7.20;66.50;100521.38;4960524;28;20038;-84
2023/03/17 05:23:10;;;;;;;9.90;2.17;;;;;;;7.19;66.59;100534.03;4993803;28;20088;-85
2023/03/17 05:25:35;;;;;;;13.38;2.45;;;;;;;7.23;66.63;100525.53;4976449;28;20049;-84
2023/03/17 05:28:01;;;;;;;12.10;2.10;;;;;;;7.22;66.55;100540.91;4976455;28;20490;-84
2023/03/17 05:30:26;;;;;;;12.17;2.33;;;;;;;7.21;66.48;100541.94;4960070;28;20026;-84
2023/03/17 05:32:52;;;;;;;8.63;2.42;;;;;;;7.23;66.54;100549.81;4996234;28;20037;-84
2023/03/17 05:35:18;;;;;;;10.87;2.07;;;;;;;7.20;66.69;100549.22;4979849;28;20390;-85
2023/03/17 05:37:45;;;;;;;7.40;2.13;;;;;;;7.20;66.99;100546.50;4963838;28;20054;-84
2023/03/17 05:40:11;;;;;;;8.77;2.17;;;;;;;7.17;66.89;100546.88;4997041;28;20031;-84
2023/03/17 05:42:37;;;;;;;12.10;2.28;;;;;;;7.17;67.00;100546.06;4996880;28;20034;-84
2023/03/17 05:45:05;;;;;;;10.27;2.53;;;;;;;7.15;67.25;100540.88;4980116;28;20053;-84
2023/03/17 05:47:33;;;;;;;8.73;2.20;;;;;;;7.14;66.88;100536.50;4979073;28;20029;-84
2023/03/17 05:49:59;;;;;;;13.35;1.90;;;;;;;7.14;67.28;100530.28;4979776;28;20115;-85
2023/03/17 05:52:25;;;;;;;7.90;1.90;;;;;;;7.12;67.50;100535.88;4979211;28;20142;-84
2023/03/17 05:54:52;;;;;;;9.75;2.25;;;;;;;7.11;67.22;100544.16;4979979;28;20070;-84
2023/03/17 05:57:18;;;;;;;8.95;2.60;;;;;;;7.09;67.78;100538.16;4979417;28;20038;-84
2023/03/17 05:59:43;;;;;;;12.37;2.27;;;;;;;7.06;68.23;100533.97;4963883;28;20042;-84
2023/03/17 06:02:10;;;;;;;12.80;2.03;;;;;;;7.06;67.77;100531.28;4963313;28;20269;-84
2023/03/17 06:04:35;;;;;;;8.05;1.98;;;;;;;7.03;68.33;100529.81;4979325;28;20030;-84
2023/03/17 06:07:01;;;;;;;7.78;2.10;;;;;;;7.05;68.45;100532.31;4978915;28;20085;-85
2023/03/17 06:09:26;;;;;;;9.20;2.17;;;;;;;7.06;68.18;100535.81;4979665;28;20037;-84
2023/03/17 06:11:54;;;;;;;8.20;2.20;;;;;;;7.06;68.25;100541.22;4979463;28;20030;-84
2023/03/17 06:14:20;;;;;;;9.23;2.00;;;;;;;7.07;69.03;100532.09;4979089;28;20454;-84
2023/03/17 06:16:45;;;;;;;12.23;2.67;;;;;;;7.08;69.08;100539.19;4963236;28;20048;-84
2023/03/17 06:19:11;;;;;;;11.30;2.10;;;;;;;7.12;68.85;100535.88;4979308;28;20462;-84
2023/03/17 06:21:37;;;;;;;8.97;2.17;;;;;;;7.15;68.83;100540.03;4978799;28;20050;-84
2023/03/17 06:24:02;;;;;;;15.80;2.30;;;;;;;7.19;68.64;100542.13;4996906;28;20105;-83
2023/03/17 06:26:28;;;;;;;11.33;2.40;;;;;;;7.26;68.55;100549.44;4963051;28;20034;-84
2023/03/17 06:28:53;;;;;;;8.47;1.83;;;;;;;7.30;68.03;100545.28;4978985;28;20038;-84
2023/03/17 06:31:19;;;;;;;9.18;1.92;;;;;;;7.34;67.93;100544.69;4962869;28;20124;-84
2023/03/17 06:33:44;;;;;;;11.23;2.30;;;;;;;7.38;67.91;100553.19;4963155;28;20034;-83
2023/03/17 06:36:10;;;;;;;9.05;2.03;;;;;;;7.41;67.63;100547.44;4996425;28;20049;-83
2023/03/17 06:38:35;;;;;;;9.98;1.80;;;;;;;7.44;67.69;100543.47;4962452;28;20046;-83
2023/03/17 06:41:02;;;;;;;11.20;2.13;;;;;;;7.49;67.36;100541.84;4946596;28;20042;-83
2023/03/17 06:43:27;;;;;;;8.43;1.80;;;;;;;7.57;67.44;100545.41;4946595;28;20475;-84
2023/03/17 06:45:53;;;;;;;6.80;2.13;;;;;;;7.64;66.96;100532.75;4996086;28;20093;-83
2023/03/17 06:48:18;;;;;;;6.60;2.00;;;;;;;7.70;67.45;100535.44;4962297;28;20117;-82
2023/03/17 06:50:46;;;;;;;6.88;1.70;;;;;;;7.81;67.02;100534.03;4978502;28;20474;-83
2023/03/17 06:53:12;;;;;;;7.23;2.03;;;;;;;7.92;66.63;100538.00;4978259;28;20053;-82
2023/03/17 06:55:37;;;;;;;8.05;1.95;;;;;;;8.01;65.74;100541.34;4946270;28;20034;-83
2023/03/17 06:58:03;;;;;;;7.13;2.03;;;;;;;8.06;65.54;100544.22;4962126;28;20030;-85
2023/03/17 07:00:29;;;;;;;5.93;1.95;;;;;;;8.13;65.15;100542.38;4961954;28;20390;-85
2023/03/17 07:02:56;;;;;;;7.00;1.67;;;;;;;8.19;65.08;100544.28;4945716;28;20034;-85
2023/03/17 07:05:22;;;;;;;12.15;2.45;;;;;;;8.26;65.17;100538.84;4962012;28;20042;-85
2023/03/17 07:07:48;;;;;;;10.18;2.10;;;;;;;8.35;64.25;100542.19;4995123;28;20042;-85
2023/03/17 07:10:14;;;;;;;6.35;1.80;;;;;;;8.44;64.41;100540.97;4977829;28;20038;-85
2023/03/17 07:12:41;;;;;;;11.95;2.10;;;;;;;8.51;64.62;100539.09;4978056;28;20034;-85
2023/03/17 07:15:08;;;;;;;5.85;1.88;;;;;;;8.59;64.45;100547.00;4977955;28;20026;-85
2023/03/17 07:17:34;;;;;;;11.40;2.10;;;;;;;8.65;63.48;100547.19;4977706;28;20121;-84
2023/03/17 07:20:05;;;;;;;7.40;1.90;;;;;;;8.72;63.64;100542.59;4977523;28;20427;-84
2023/03/17 07:22:31;;;;;;;7.43;1.77;;;;;;;8.82;63.06;100550.28;4977375;28;20292;-84
2023/03/17 07:24:57;;;;;;;7.90;2.13;;;;;;;8.88;62.93;100544.84;4977474;28;20478;-85
2023/03/17 07:27:24;;;;;;;8.38;2.10;;;;;;;8.98;62.58;100530.06;4977330;28;20045;-85
2023/03/17 07:29:50;;;;;;;11.10;1.85;;;;;;;9.10;62.44;100539.19;4977451;28;20035;-84
2023/03/17 07:32:15;;;;;;;10.37;2.50;;;;;;;9.21;62.36;100540.38;4961637;28;20096;-84
2023/03/17 07:34:41;;;;;;;11.38;2.00;;;;;;;9.30;61.30;100517.44;4961975;28;20030;-84
2023/03/17 07:37:06;;;;;;;8.23;1.90;;;;;;;9.40;61.47;100525.09;4961686;28;20113;-84
2023/03/17 07:39:32;;;;;;;8.30;2.30;;;;;;;9.46;61.06;100525.09;4961654;28;20082;-84
2023/03/17 07:41:57;;;;;;;5.55;1.88;;;;;;;9.54;60.84;100525.88;4994707;28;20437;-84
2023/03/17 07:44:24;;;;;;;4.80;1.90;;;;;;;9.69;60.77;100529.13;4961206;28;20475;-84
2023/03/17 07:46:50;;;;;;;7.32;1.63;;;;;;;9.80;60.35;100522.16;4977021;28;20030;-85
2023/03/17 07:49:16;;;;;;;4.35;1.90;;;;;;;9.88;59.54;100521.09;4994642;28;20112;-84
2023/03/17 07:51:42;;;;;;;9.73;2.33;;;;;;;9.93;59.36;100524.78;4976688;28;20049;-84
2023/03/17 07:54:12;;;;;;;7.68;2.20;;;;;;;9.97;59.09;100533.34;4976206;28;20402;-84
2023/03/17 07:56:38;;;;;;;6.60;1.90;;;;;;;9.97;59.26;100531.44;4977620;28;20030;-84
2023/03/17 07:59:06;;;;;;;6.10;1.90;;;;;;;10.03;58.64;100545.19;4977436;28;20105;-84
2023/03/17 08:01:32;;;;;;;5.28;1.70;;;;;;;10.07;58.64;100547.22;4994320;28;20030;-83
2023/03/17 08:03:57;;;;;;;7.38;1.77;;;;;;;10.07;58.75;100547.22;4961304;28;20039;-84
2023/03/17 08:06:42;;;;;;;;;;;;;;;;;;;;;
2023/03/17 08:09:10;;;;;;;5.22;1.90;;;;;;;10.18;58.36;100534.84;4995140;28;20366;-84
2023/03/17 08:11:36;;;;;;;6.00;2.00;;;;;;;10.26;58.05;100534.59;4976713;28;20045;-84
2023/03/17 08:14:02;;;;;;;5.03;1.95;;;;;;;10.30;57.86;100529.53;4994090;28;20312;-84
2023/03/17 08:16:28;;;;;;;8.07;1.93;;;;;;;10.41;57.80;100541.56;4960840;28;20033;-84
2023/03/17 08:18:55;;;;;;;4.57;1.83;;;;;;;10.48;57.47;100550.47;4976808;28;20026;-84
2023/03/17 08:21:20;;;;;;;4.65;2.08;;;;;;;10.59;57.71;100540.81;4994401;28;20030;-83
2023/03/17 08:23:46;;;;;;;5.60;2.10;;;;;;;10.67;56.76;100543.22;4944143;28;20566;-83
2023/03/17 08:26:13;;;;;;;6.63;2.07;;;;;;;10.65;57.33;100542.63;4976126;28;20037;-83
2023/03/17 08:28:39;;;;;;;9.73;2.20;;;;;;;10.74;56.75;100540.44;4993773;28;20034;-84
2023/03/17 08:31:21;;;;;;;5.65;2.05;;;;;;;10.82;57.24;100538.28;4976828;28;20042;-84
2023/03/17 08:33:49;;;;;;;5.73;2.10;;;;;;;10.92;56.85;100537.72;4977359;28;20108;-84
2023/03/17 08:36:16;;;;;;;6.13;2.22;;;;;;;11.05;56.85;100534.06;4976934;28;20030;-84
2023/03/17 08:38:42;;;;;;;8.65;2.47;;;;;;;11.25;56.39;100522.97;4976651;28;20054;-85
2023/03/17 08:41:12;;;;;;;5.13;2.00;;;;;;;11.31;56.01;100516.63;4994124;28;20037;-85
2023/03/17 08:43:38;;;;;;;3.92;2.10;;;;;;;11.41;55.60;100506.03;4993714;28;20367;-85
2023/03/17 08:46:08;;;;;;;5.43;2.27;;;;;;;11.57;55.45;100511.88;4975806;28;20395;-86
2023/03/17 08:48:35;;;;;;;5.75;2.10;;;;;;;11.68;54.99;100523.88;4977001;28;20037;-85
2023/03/17 08:51:01;;;;;;;4.00;2.20;;;;;;;11.74;54.14;100533.81;4976342;28;20117;-85
2023/03/17 08:53:26;;;;;;;3.47;1.80;;;;;;;11.73;54.55;100534.88;4976261;28;20190;-85
2023/03/17 08:55:55;;;;;;;4.80;1.83;;;;;;;11.82;54.83;100540.81;4976438;28;20042;-85
2023/03/17 08:58:21;;;;;;;3.80;1.90;;;;;;;11.96;55.29;100527.88;4976421;28;20030;-87
2023/03/17 09:00:47;;;;;;;3.88;1.95;;;;;;;12.07;54.59;100522.47;4976612;28;20030;-86
2023/03/17 09:03:14;;;;;;;4.93;2.37;;;;;;;12.13;54.33;100523.41;4961020;28;20443;-85
2023/03/17 09:05:41;;;;;;;4.05;2.10;;;;;;;12.33;54.28;100528.56;4944622;28;20031;-84
2023/03/17 09:08:07;;;;;;;3.95;2.20;;;;;;;12.40;53.67;100520.25;4996375;28;20429;-85
2023/03/17 09:10:32;;;;;;;3.45;1.98;;;;;;;12.46;53.81;100514.72;4980117;28;20479;-84
2023/03/17 09:13:01;;;;;;;3.83;2.00;;;;;;;12.66;53.10;100515.44;4980207;28;20034;-84
2023/03/17 09:15:27;;;;;;;5.45;2.20;;;;;;;12.73;52.85;100518.88;4948942;28;20030;-87
2023/03/17 09:17:53;;;;;;;5.97;2.20;;;;;;;12.77;52.73;100518.16;4980134;28;20038;-83
2023/03/17 09:20:19;;;;;;;6.50;2.13;;;;;;;12.85;52.91;100521.56;4979888;28;20446;-83
2023/03/17 09:22:46;;;;;;;4.13;2.10;;;;;;;13.00;52.41;100516.44;4980689;28;20030;-83
2023/03/17 09:25:12;;;;;;;5.55;2.33;;;;;;;13.26;52.26;100528.72;4948391;28;20038;-83
2023/03/17 09:27:37;;;;;;;5.70;2.30;;;;;;;13.51;51.82;100525.69;4963475;28;20089;-83
2023/03/17 09:30:03;;;;;;;4.18;2.00;;;;;;;13.69;50.45;100519.22;4963669;28;20042;-85
2023/03/17 09:32:28;;;;;;;4.77;2.60;;;;;;;13.77;50.84;100511.72;4963662;28;20065;-84
2023/03/17 09:34:54;;;;;;;4.43;2.10;;;;;;;14.00;50.20;100508.84;4963676;28;20121;-85
2023/03/17 09:37:20;;;;;;;4.85;1.85;;;;;;;14.19;50.31;100495.81;4996824;28;20525;-85
2023/03/17 09:39:45;;;;;;;3.60;2.30;;;;;;;14.32;50.01;100500.13;4979531;28;20104;-85
2023/03/17 09:42:37;;;;;;;6.20;2.67;;;;;;;14.41;50.17;100503.25;4979693;28;20073;-85
2023/03/17 09:45:24;;;;;;;5.47;2.07;;;;;;;14.36;50.07;100494.97;4996874;28;20023;-86
2023/03/17 09:48:10;;;;;;;4.03;2.10;;;;;;;14.42;50.18;100512.25;4979391;28;20052;-82
2023/03/17 09:50:47;;;;;;;7.35;2.28;;;;;;;14.45;49.84;100503.56;4997116;28;20034;-83
2023/03/17 09:53:32;;;;;;;5.30;2.28;;;;;;;14.43;49.79;100514.75;4996645;28;20132;-82
2023/03/17 09:56:20;;;;;;;6.97;2.25;;;;;;;14.23;50.02;100515.22;4996636;28;20033;-84
2023/03/17 09:58:58;;;;;;;4.70;1.97;;;;;;;14.08;50.67;100529.44;4978462;28;20189;-83
2023/03/17 10:01:24;;;;;;;5.88;2.10;;;;;;;13.92;50.65;100532.97;4997107;28;20057;-83
2023/03/17 10:03:50;;;;;;;6.30;2.40;;;;;;;13.84;51.29;100529.56;4963814;28;20035;-85
2023/03/17 10:06:31;;;;;;;6.05;2.72;;;;;;;13.88;51.72;100542.72;4996463;28;20038;-84
2023/03/17 10:09:07;;;;;;;7.68;2.60;;;;;;;13.95;51.86;100532.47;4979399;28;20486;-84
2023/03/17 10:11:46;;;;;;;7.23;2.30;;;;;;;14.03;51.37;100530.19;4979412;28;20034;-84
2023/03/17 10:14:26;;;;;;;5.97;2.50;;;;;;;14.07;50.84;100533.28;4997196;28;20069;-84
2023/03/17 10:17:00;;;;;;;5.55;2.15;;;;;;;14.04;51.37;100570.03;4979709;28;20483;-84
2023/03/17 10:19:26;;;;;;;5.45;2.40;;;;;;;14.06;51.91;100563.53;4996455;28;20026;-84
2023/03/17 10:22:04;;;;;;;4.53;2.07;;;;;;;14.27;51.42;100551.06;4978901;28;20057;-84
2023/03/17 10:24:31;;;;;;;4.05;1.88;;;;;;;14.54;50.27;100557.50;4996589;28;20038;-84
2023/03/17 10:27:03;;;;;;;4.70;2.50;;;;;;;14.72;49.97;100572.00;4978742;28;20478;-84
2023/03/17 10:29:30;;;;;;;6.50;2.70;;;;;;;14.96;49.75;100558.97;4979112;28;20030;-84
2023/03/17 10:31:56;;;;;;;6.13;2.13;;;;;;;15.32;48.98;100566.81;4947439;28;20038;-84
2023/03/17 10:34:28;;;;;;;6.43;2.53;;;;;;;15.48;48.84;100567.84;4979161;28;20043;-84
2023/03/17 10:37:00;;;;;;;4.82;2.13;;;;;;;15.70;48.63;100559.63;4995624;28;20475;-83
2023/03/17 10:39:26;;;;;;;7.13;1.90;;;;;;;16.02;48.50;100556.97;4995620;28;20106;-84
2023/03/17 10:42:28;;;;;;;6.50;2.20;;;;;;;16.41;48.18;100551.28;4978508;28;20034;-84
2023/03/17 10:44:57;;;;;;;3.47;1.87;;;;;;;16.88;46.24;100546.16;4978702;28;20113;-84
2023/03/17 10:47:30;;;;;;;5.68;1.85;;;;;;;17.30;46.51;100548.00;4978224;28;20073;-84
2023/03/17 10:49:57;;;;;;;5.95;2.17;;;;;;;17.75;44.28;100540.22;4978185;28;20054;-84
2023/03/17 10:52:29;;;;;;;6.00;2.10;;;;;;;18.12;43.30;100551.00;4995538;28;20092;-84
2023/03/17 10:55:01;;;;;;;5.75;1.90;;;;;;;18.44;42.75;100549.06;4995724;28;20026;-84
2023/03/17 10:57:27;;;;;;;5.27;3.00;;;;;;;18.78;41.40;100546.59;4995729;28;20122;-84
2023/03/17 10:59:55;;;;;;;10.43;2.38;;;;;;;18.96;41.26;100544.38;4962262;28;20034;-84
2023/03/17 11:02:34;;;;;;;3.35;1.92;;;;;;;18.90;41.11;100538.88;4978003;28;20041;-85
2023/03/17 11:05:06;;;;;;;4.35;2.40;;;;;;;18.79;41.32;100528.97;4978795;28;20035;-85
2023/03/17 11:07:38;;;;;;;6.53;2.42;;;;;;;19.01;40.97;100531.41;4995460;28;20482;-85
2023/03/17 11:10:16;;;;;;;6.43;2.90;;;;;;;19.42;40.58;100530.44;4995441;28;20041;-85
2023/03/17 11:12:41;;;;;;;3.70;2.35;;;;;;;19.66;39.50;100530.59;4995451;28;20034;-85
2023/03/17 11:15:15;;;;;;;4.43;2.50;;;;;;;19.67;39.12;100525.91;4961950;28;20030;-86
2023/03/17 11:17:55;;;;;;;3.90;1.97;;;;;;;19.78;40.30;100514.59;4995426;28;20116;-85
2023/03/17 11:20:30;;;;;;;5.22;2.50;;;;;;;20.14;38.45;100514.31;4995392;28;20033;-83
2023/03/17 11:23:10;;;;;;;9.10;2.63;;;;;;;20.99;37.69;100509.41;4977785;28;20042;-83
2023/03/17 11:25:41;;;;;;;5.43;2.20;;;;;;;22.36;34.37;100514.38;4978355;28;20100;-86
2023/03/17 11:28:15;;;;;;;7.22;3.13;;;;;;;23.46;33.51;100512.81;4977525;28;20037;-86
2023/03/17 11:30:47;;;;;;;6.17;3.10;;;;;;;24.74;30.82;100508.09;4976553;28;20034;-85
2023/03/17 11:33:37;;;;;;;6.65;3.05;;;;;;;26.11;30.64;100509.84;4978322;28;20391;-85
2023/03/17 11:36:14;;;;;;;8.75;2.70;;;;;;;27.88;29.26;100515.09;4978219;28;20038;-85